Time;durP1;ratioP1;P1;durP2;ratioP2;P2;SDS_P1;SDS_P2;PMS_P1;PMS_P2;Temp;Humidity;BMP_temperature;BMP_pressure;BME280_temperature;BME280_humidity;BME280_pressure;Samples;Min_cycle;Max_cycle;Signal;HPM_P1;HPM_P2
2021/05/29 00:00:58;;;;;;;1.70;1.40;;;8.70;99.90;;;;;;5025169;28;20485;-77
2021/05/29 00:03:26;;;;;;;4.47;1.35;;;8.70;99.90;;;;;;5024006;28;20034;-77
2021/05/29 00:05:52;;;;;;;1.83;1.70;;;8.80;99.90;;;;;;5027411;28;20087;-78
2021/05/29 00:08:17;;;;;;;1.88;1.67;;;8.80;99.90;;;;;;5032237;28;20122;-77
2021/05/29 00:10:46;;;;;;;1.85;1.42;;;8.80;99.90;;;;;;5031964;28;20632;-77
2021/05/29 00:13:12;;;;;;;2.28;1.58;;;8.80;99.90;;;;;;5030650;28;20021;-78
2021/05/29 00:15:39;;;;;;;1.77;1.48;;;8.80;99.90;;;;;;5026399;28;20032;-78
2021/05/29 00:18:06;;;;;;;1.52;1.40;;;8.80;99.90;;;;;;5031078;28;20477;-78
2021/05/29 00:20:33;;;;;;;1.60;1.40;;;8.80;99.90;;;;;;5026963;28;20033;-78
2021/05/29 00:22:59;;;;;;;1.58;1.38;;;8.80;99.90;;;;;;5030594;28;20029;-78
2021/05/29 00:25:24;;;;;;;1.65;1.55;;;8.80;99.90;;;;;;5028437;28;20083;-78
2021/05/29 00:27:50;;;;;;;3.53;1.52;;;8.80;99.90;;;;;;5030725;28;20060;-78
2021/05/29 00:30:16;;;;;;;1.35;1.25;;;8.80;99.90;;;;;;5031202;28;20017;-77
2021/05/29 00:32:42;;;;;;;1.23;1.13;;;8.80;99.90;;;;;;5030386;28;20029;-77
2021/05/29 00:35:09;;;;;;;1.40;1.30;;;8.80;99.90;;;;;;5025923;28;20516;-77
2021/05/29 00:37:36;;;;;;;2.70;1.20;;;8.70;99.90;;;;;;5010511;28;20495;-77
2021/05/29 00:40:04;;;;;;;1.65;1.23;;;8.70;99.90;;;;;;5029259;28;20036;-77
2021/05/29 00:42:29;;;;;;;2.33;1.80;;;8.60;99.90;;;;;;5029270;28;20029;-77
2021/05/29 00:44:57;;;;;;;2.53;1.40;;;8.60;99.90;;;;;;5027967;28;20056;-77
2021/05/29 00:47:26;;;;;;;2.03;1.60;;;8.60;99.90;;;;;;5013148;28;20029;-77
2021/05/29 00:49:53;;;;;;;1.30;1.20;;;8.50;99.90;;;;;;5016690;28;20128;-77
2021/05/29 00:52:20;;;;;;;1.50;1.40;;;8.50;99.90;;;;;;5030162;28;20085;-77
2021/05/29 00:54:46;;;;;;;1.77;1.17;;;8.50;99.90;;;;;;5028241;28;20556;-77
2021/05/29 00:57:13;;;;;;;1.40;1.30;;;8.40;99.90;;;;;;5031226;28;20486;-77
2021/05/29 00:59:40;;;;;;;1.25;1.15;;;8.40;99.90;;;;;;5031308;28;20512;-77
2021/05/29 01:02:11;;;;;;;1.55;1.20;;;8.40;99.90;;;;;;5031893;28;20529;-77
2021/05/29 01:04:37;;;;;;;1.55;1.45;;;8.30;99.90;;;;;;5031465;28;20033;-77
2021/05/29 01:07:09;;;;;;;2.85;1.52;;;8.30;99.90;;;;;;5031473;28;20025;-77
2021/05/29 01:09:41;;;;;;;1.75;1.33;;;8.30;99.90;;;;;;5034265;28;20069;-77
2021/05/29 01:12:09;;;;;;;3.40;1.55;;;8.10;99.90;;;;;;5031881;28;20072;-77
2021/05/29 01:14:39;;;;;;;1.42;1.33;;;8.10;99.90;;;;;;5032796;28;20050;-77
2021/05/29 01:17:05;;;;;;;3.78;1.77;;;8.00;99.90;;;;;;5034493;28;20025;-77
2021/05/29 01:19:31;;;;;;;1.60;1.48;;;8.00;99.90;;;;;;5028902;28;20472;-77
2021/05/29 01:21:58;;;;;;;1.60;1.50;;;8.00;99.90;;;;;;5034086;28;20041;-77
2021/05/29 01:24:26;;;;;;;1.95;1.60;;;8.00;99.90;;;;;;5029778;28;20474;-77
2021/05/29 01:26:53;;;;;;;2.05;1.58;;;8.00;99.90;;;;;;5033820;28;20033;-77
2021/05/29 01:29:19;;;;;;;1.98;1.60;;;8.00;99.90;;;;;;5033897;28;20033;-77
2021/05/29 01:31:50;;;;;;;2.13;1.52;;;7.90;99.90;;;;;;5035032;28;20026;-77
2021/05/29 01:34:21;;;;;;;1.70;1.42;;;7.90;99.90;;;;;;5030075;28;20033;-78
2021/05/29 01:36:48;;;;;;;2.08;1.52;;;7.90;99.90;;;;;;5033207;28;20033;-77
2021/05/29 01:39:14;;;;;;;2.75;1.92;;;8.00;99.90;;;;;;5032045;28;20032;-77
2021/05/29 01:41:40;;;;;;;1.63;1.40;;;7.90;99.90;;;;;;5034542;28;20026;-77
2021/05/29 01:44:08;;;;;;;3.05;1.55;;;7.90;99.90;;;;;;5033402;28;20036;-77
2021/05/29 01:46:34;;;;;;;2.53;1.88;;;7.90;99.90;;;;;;5032219;28;20045;-77
2021/05/29 01:49:00;;;;;;;1.98;1.52;;;8.00;99.90;;;;;;5015493;28;20037;-77
2021/05/29 01:51:25;;;;;;;3.40;1.60;;;8.00;99.90;;;;;;5016163;28;20033;-78
2021/05/29 01:53:53;;;;;;;1.85;1.20;;;7.90;99.90;;;;;;5028756;28;20029;-78
2021/05/29 01:56:20;;;;;;;1.77;1.30;;;7.90;99.90;;;;;;5032216;28;20022;-78
2021/05/29 01:58:46;;;;;;;1.70;1.33;;;7.90;99.90;;;;;;5033432;28;20026;-78
2021/05/29 02:01:13;;;;;;;1.60;1.50;;;7.80;99.90;;;;;;5032047;28;20033;-78
2021/05/29 02:03:41;;;;;;;1.40;1.30;;;7.80;99.90;;;;;;5033291;28;20036;-78
2021/05/29 02:06:07;;;;;;;1.95;1.45;;;7.80;99.90;;;;;;5030546;28;20022;-78
2021/05/29 02:08:33;;;;;;;1.40;1.30;;;7.70;99.90;;;;;;5032991;28;20171;-77
2021/05/29 02:11:00;;;;;;;2.38;1.40;;;7.70;99.90;;;;;;5032390;28;20030;-78
2021/05/29 02:13:29;;;;;;;1.65;1.55;;;7.70;99.90;;;;;;5033392;28;20052;-77
2021/05/29 02:15:56;;;;;;;1.88;1.35;;;7.70;99.90;;;;;;5030879;28;20034;-78
2021/05/29 02:18:23;;;;;;;1.73;1.52;;;7.70;99.90;;;;;;5015794;28;20092;-78
2021/05/29 02:20:58;;;;;;;3.97;1.50;;;7.70;99.90;;;;;;5033348;28;20095;-78
2021/05/29 02:23:27;;;;;;;2.47;1.65;;;7.60;99.90;;;;;;5031885;28;20091;-78
2021/05/29 02:26:01;;;;;;;1.92;1.42;;;7.60;99.90;;;;;;5014679;28;20060;-78
2021/05/29 02:28:27;;;;;;;1.45;1.35;;;7.50;99.90;;;;;;5028867;28;20486;-78
2021/05/29 02:30:53;;;;;;;2.00;1.50;;;7.40;99.90;;;;;;5031951;28;20053;-78
2021/05/29 02:33:20;;;;;;;1.40;1.30;;;7.30;99.90;;;;;;5014827;28;20383;-77
2021/05/29 02:35:46;;;;;;;1.52;1.33;;;7.20;99.90;;;;;;5031456;28;20447;-78
2021/05/29 02:38:12;;;;;;;2.40;1.40;;;7.20;99.90;;;;;;5030776;28;20100;-77
2021/05/29 02:40:38;;;;;;;1.63;1.50;;;7.20;99.90;;;;;;5031158;28;20053;-78
2021/05/29 02:43:04;;;;;;;2.13;1.63;;;7.10;99.90;;;;;;5028987;28;20033;-77
2021/05/29 02:45:30;;;;;;;2.10;1.67;;;7.10;99.90;;;;;;5030725;28;20025;-78
2021/05/29 02:47:56;;;;;;;2.20;1.45;;;7.10;99.90;;;;;;5030686;28;20512;-78
2021/05/29 02:50:23;;;;;;;1.70;1.50;;;7.10;99.90;;;;;;5030292;28;20022;-78
2021/05/29 02:52:49;;;;;;;1.38;1.27;;;7.10;99.90;;;;;;5031806;28;20038;-78
2021/05/29 02:55:21;;;;;;;2.58;1.60;;;7.20;99.90;;;;;;5027375;28;20588;-78
2021/05/29 02:57:51;;;;;;;4.05;1.73;;;7.20;99.90;;;;;;5029286;28;20514;-78
2021/05/29 03:00:17;;;;;;;2.15;1.40;;;7.20;99.90;;;;;;5032273;28;20075;-78
2021/05/29 03:02:43;;;;;;;1.77;1.52;;;7.30;99.90;;;;;;5029968;28;20041;-78
2021/05/29 03:05:10;;;;;;;1.42;1.33;;;7.30;99.90;;;;;;5029210;28;20029;-78
2021/05/29 03:07:36;;;;;;;2.42;1.60;;;7.30;99.90;;;;;;5031549;28;20151;-78
2021/05/29 03:10:06;;;;;;;2.40;1.70;;;7.30;99.90;;;;;;5031893;28;20112;-77
2021/05/29 03:12:35;;;;;;;1.77;1.23;;;7.20;99.90;;;;;;5030940;28;20034;-77
2021/05/29 03:15:01;;;;;;;1.63;1.40;;;7.20;99.90;;;;;;5023904;28;20033;-77
2021/05/29 03:17:27;;;;;;;1.58;1.30;;;7.20;99.90;;;;;;5030263;28;20037;-78
2021/05/29 03:19:53;;;;;;;2.35;1.77;;;7.20;99.90;;;;;;5029669;28;20040;-78
2021/05/29 03:22:19;;;;;;;2.05;1.73;;;7.20;99.90;;;;;;5027844;28;21252;-78
2021/05/29 03:24:45;;;;;;;1.75;1.58;;;7.20;99.90;;;;;;5028940;28;20083;-77
2021/05/29 03:27:16;;;;;;;1.75;1.60;;;7.20;99.90;;;;;;5031111;28;20075;-77
2021/05/29 03:29:41;;;;;;;2.20;1.60;;;7.10;99.90;;;;;;5029499;28;20121;-78
2021/05/29 03:32:07;;;;;;;1.95;1.83;;;7.10;99.90;;;;;;5029931;28;20446;-78
2021/05/29 03:34:33;;;;;;;1.83;1.73;;;7.10;99.90;;;;;;5024722;28;20028;-77
2021/05/29 03:36:59;;;;;;;1.63;1.52;;;7.20;99.90;;;;;;5030655;28;20034;-76
2021/05/29 03:39:24;;;;;;;1.77;1.45;;;7.20;99.90;;;;;;5024175;28;20124;-77
2021/05/29 03:41:50;;;;;;;3.03;1.60;;;7.20;99.90;;;;;;5028924;28;20105;-77
2021/05/29 03:44:15;;;;;;;1.85;1.50;;;7.20;99.90;;;;;;5031188;28;20029;-77
2021/05/29 03:46:41;;;;;;;1.88;1.77;;;7.20;99.90;;;;;;5028115;28;20405;-78
2021/05/29 03:49:07;;;;;;;1.60;1.50;;;7.20;99.90;;;;;;5030702;28;20034;-78
2021/05/29 03:51:32;;;;;;;2.00;1.60;;;7.20;99.90;;;;;;5013350;28;20033;-76
2021/05/29 03:53:58;;;;;;;1.83;1.45;;;7.20;99.90;;;;;;5030386;28;20452;-77
2021/05/29 03:56:24;;;;;;;2.47;1.80;;;7.30;99.90;;;;;;5027876;28;20044;-77
2021/05/29 03:58:49;;;;;;;1.58;1.40;;;7.30;99.90;;;;;;5031129;28;20034;-77
2021/05/29 04:01:15;;;;;;;1.95;1.20;;;7.40;99.90;;;;;;5025905;28;20049;-77
2021/05/29 04:03:41;;;;;;;1.13;1.02;;;7.40;99.90;;;;;;5029400;28;20052;-77
2021/05/29 04:06:07;;;;;;;3.13;1.20;;;7.40;99.90;;;;;;5029167;28;20635;-77
2021/05/29 04:08:32;;;;;;;1.42;1.33;;;7.40;99.90;;;;;;5028999;28;20045;-77
2021/05/29 04:10:58;;;;;;;2.10;1.50;;;7.40;99.90;;;;;;5029014;28;20033;-77
2021/05/29 04:13:24;;;;;;;1.48;1.38;;;7.50;99.90;;;;;;5012467;28;20552;-77
2021/05/29 04:15:49;;;;;;;3.08;2.05;;;7.60;99.90;;;;;;5020535;28;20382;-77
2021/05/29 04:18:15;;;;;;;1.50;1.40;;;7.60;99.90;;;;;;5028835;28;20018;-78
2021/05/29 04:20:41;;;;;;;1.50;1.40;;;7.60;99.90;;;;;;5025545;28;20061;-77
2021/05/29 04:23:07;;;;;;;3.35;1.77;;;7.70;99.90;;;;;;5029500;28;20029;-78
2021/05/29 04:25:33;;;;;;;1.77;1.60;;;7.70;99.90;;;;;;5031649;28;20497;-77
2021/05/29 04:27:59;;;;;;;1.85;1.60;;;7.80;99.90;;;;;;5031194;28;20083;-77
2021/05/29 04:30:27;;;;;;;2.33;1.80;;;7.80;99.90;;;;;;5030682;28;20402;-77
2021/05/29 04:32:53;;;;;;;2.35;1.75;;;7.90;99.90;;;;;;5034699;28;20032;-77
2021/05/29 04:35:20;;;;;;;1.90;1.63;;;7.90;99.90;;;;;;5032937;28;20017;-77
2021/05/29 04:37:47;;;;;;;1.88;1.63;;;8.00;99.90;;;;;;5033477;28;20113;-77
2021/05/29 04:40:14;;;;;;;1.70;1.50;;;8.10;99.90;;;;;;5032169;28;20026;-77
2021/05/29 04:42:40;;;;;;;1.73;1.25;;;8.20;99.90;;;;;;5029500;28;20387;-77
2021/05/29 04:45:08;;;;;;;3.67;1.63;;;8.30;99.90;;;;;;5029386;28;20034;-77
2021/05/29 04:47:34;;;;;;;2.00;1.20;;;8.30;99.90;;;;;;5033665;28;20034;-77
2021/05/29 04:50:00;;;;;;;2.88;1.58;;;8.40;99.90;;;;;;5033973;28;20041;-77
2021/05/29 04:52:29;;;;;;;3.33;1.63;;;8.50;99.90;;;;;;5032720;28;20025;-77
2021/05/29 04:54:55;;;;;;;1.65;1.38;;;8.60;99.90;;;;;;5032550;28;20060;-77
2021/05/29 04:57:20;;;;;;;2.15;1.77;;;8.70;99.90;;;;;;5032760;28;20037;-77
2021/05/29 04:59:47;;;;;;;1.65;1.55;;;8.80;99.90;;;;;;5029886;28;20037;-77
2021/05/29 05:02:12;;;;;;;2.00;1.77;;;8.90;99.90;;;;;;5029006;28;20406;-76
2021/05/29 05:04:38;;;;;;;1.55;1.45;;;8.90;99.90;;;;;;5032214;28;20029;-76
2021/05/29 05:07:04;;;;;;;1.50;1.40;;;9.10;99.90;;;;;;5031225;28;20052;-77
2021/05/29 05:09:29;;;;;;;1.65;1.55;;;9.10;99.90;;;;;;5031806;28;20029;-77
2021/05/29 05:11:55;;;;;;;1.88;1.73;;;9.20;99.90;;;;;;5030943;28;20052;-77
2021/05/29 05:14:21;;;;;;;2.30;1.65;;;9.30;99.90;;;;;;5029366;28;20041;-77
2021/05/29 05:16:47;;;;;;;1.70;1.52;;;9.30;99.90;;;;;;5030863;28;20022;-77
2021/05/29 05:19:13;;;;;;;3.08;2.05;;;9.40;99.90;;;;;;5032565;28;20482;-77
2021/05/29 05:21:39;;;;;;;2.17;1.58;;;9.50;99.90;;;;;;5031009;28;20032;-77
2021/05/29 05:24:05;;;;;;;2.58;1.90;;;9.60;99.90;;;;;;5031284;28;20037;-77
2021/05/29 05:26:30;;;;;;;1.60;1.50;;;9.60;99.90;;;;;;5030497;28;20069;-77
2021/05/29 05:28:57;;;;;;;1.48;1.38;;;9.70;99.90;;;;;;5032794;28;20060;-78
2021/05/29 05:31:23;;;;;;;3.35;2.70;;;9.80;99.90;;;;;;5031618;28;20029;-78
2021/05/29 05:33:50;;;;;;;2.67;1.52;;;10.00;99.90;;;;;;5021724;28;20520;-78
2021/05/29 05:36:16;;;;;;;2.22;1.92;;;10.40;99.90;;;;;;5031329;28;20467;-77
2021/05/29 05:38:45;;;;;;;1.75;1.58;;;10.90;99.90;;;;;;5031193;28;20520;-78
2021/05/29 05:41:10;;;;;;;1.50;1.33;;;11.40;99.90;;;;;;5032807;28;20631;-78
2021/05/29 05:43:36;;;;;;;3.60;1.60;;;11.90;99.90;;;;;;5026173;28;20069;-78
2021/05/29 05:46:03;;;;;;;4.85;1.80;;;12.40;99.90;;;;;;5030218;28;20044;-78
2021/05/29 05:48:31;;;;;;;1.67;1.58;;;12.90;99.90;;;;;;5033187;28;20079;-77
2021/05/29 05:50:59;;;;;;;2.35;1.80;;;13.50;99.90;;;;;;5032186;28;20486;-78
2021/05/29 05:53:27;;;;;;;1.45;1.27;;;13.90;99.90;;;;;;5015554;28;20127;-79
2021/05/29 05:56:02;;;;;;;2.78;1.40;;;14.40;99.90;;;;;;5030139;28;20665;-78
2021/05/29 05:58:29;;;;;;;2.05;1.42;;;14.80;99.90;;;;;;5033598;28;20043;-78
2021/05/29 06:00:55;;;;;;;1.77;1.40;;;15.20;99.90;;;;;;5033797;28;20033;-77
2021/05/29 06:03:22;;;;;;;1.90;1.70;;;15.50;99.90;;;;;;5033720;28;20712;-78
2021/05/29 06:05:48;;;;;;;1.40;1.30;;;15.70;99.90;;;;;;5031793;28;20474;-78
2021/05/29 06:08:14;;;;;;;1.17;1.10;;;16.10;99.90;;;;;;5031946;28;20029;-78
2021/05/29 06:10:40;;;;;;;2.47;0.90;;;16.50;99.90;;;;;;5034701;28;21337;-79
2021/05/29 06:13:14;;;;;;;2.42;1.20;;;16.90;99.90;;;;;;5034489;28;20033;-78
2021/05/29 06:20:59;;;;;;;2.90;1.60;;;18.00;99.90;;;;;;5030437;28;20029;-78
2021/05/29 06:23:25;;;;;;;1.17;1.08;;;18.30;99.90;;;;;;5033641;28;20082;-78
2021/05/29 06:25:51;;;;;;;1.83;1.02;;;18.30;99.80;;;;;;5029946;28;20026;-78
2021/05/29 06:28:16;;;;;;;1.30;1.20;;;18.50;99.00;;;;;;5044443;28;20065;-78
2021/05/29 06:30:42;;;;;;;2.53;1.30;;;18.80;96.90;;;;;;5033284;28;20026;-78
2021/05/29 06:33:08;;;;;;;1.27;0.95;;;18.80;95.00;;;;;;5031254;28;20041;-78
2021/05/29 06:35:33;;;;;;;1.60;1.15;;;18.80;93.30;;;;;;5033348;28;20061;-79
2021/05/29 06:38:00;;;;;;;1.25;0.98;;;19.00;94.90;;;;;;5033812;28;20036;-79
2021/05/29 06:40:26;;;;;;;1.23;1.00;;;19.30;92.70;;;;;;5034014;28;20034;-79
2021/05/29 06:42:51;;;;;;;1.67;1.00;;;19.50;91.00;;;;;;5032294;28;20033;-79
2021/05/29 06:45:17;;;;;;;1.38;1.10;;;19.80;91.20;;;;;;5031677;28;20060;-79
2021/05/29 06:47:43;;;;;;;1.52;1.05;;;20.00;87.90;;;;;;5035048;28;20387;-78
2021/05/29 06:50:09;;;;;;;1.77;1.30;;;20.00;86.40;;;;;;5036545;28;20021;-78
2021/05/29 06:52:38;;;;;;;1.95;1.40;;;19.90;88.10;;;;;;5036107;28;20029;-79
2021/05/29 07:00:46;;;;;;;2.03;1.08;;;20.60;79.40;;;;;;5035827;28;20371;-79
2021/05/29 07:03:12;;;;;;;2.25;1.27;;;20.80;80.60;;;;;;5037587;28;20032;-78
2021/05/29 07:05:37;;;;;;;3.58;1.73;;;21.00;77.90;;;;;;5034506;28;20025;-78
2021/05/29 07:08:03;;;;;;;1.60;1.20;;;21.20;79.40;;;;;;5033616;28;20041;-78
2021/05/29 07:10:29;;;;;;;3.08;1.40;;;20.90;71.40;;;;;;5032236;28;20513;-78
2021/05/29 07:12:54;;;;;;;2.15;1.45;;;20.50;72.20;;;;;;5033906;28;20087;-78
2021/05/29 07:15:20;;;;;;;2.13;1.27;;;19.90;73.50;;;;;;5031599;28;20040;-77
2021/05/29 07:17:53;;;;;;;2.15;1.60;;;19.70;75.40;;;;;;5014650;28;20044;-78
2021/05/29 07:20:18;;;;;;;1.70;1.30;;;19.50;76.00;;;;;;5031406;28;20029;-79
2021/05/29 07:22:44;;;;;;;2.00;1.80;;;19.30;77.30;;;;;;4993701;28;1085839;-78
2021/05/29 07:25:10;;;;;;;4.03;1.75;;;19.60;76.30;;;;;;5031268;28;20569;-78
2021/05/29 07:27:36;;;;;;;1.35;1.10;;;19.70;73.50;;;;;;5032225;28;20143;-78
2021/05/29 07:30:07;;;;;;;3.03;1.33;;;19.80;74.70;;;;;;5034869;28;20115;-78
2021/05/29 07:32:36;;;;;;;1.40;1.30;;;19.80;78.80;;;;;;5034468;28;20044;-78
2021/05/29 07:35:04;;;;;;;2.17;1.58;;;19.90;72.20;;;;;;5032380;28;20029;-78
2021/05/29 07:37:29;;;;;;;1.33;1.10;;;19.90;76.50;;;;;;5034068;28;20037;-79
2021/05/29 07:39:55;;;;;;;2.08;1.20;;;20.20;75.40;;;;;;5032923;28;20040;-78
2021/05/29 07:42:21;;;;;;;2.00;1.02;;;20.60;73.00;;;;;;5016464;28;20060;-78
2021/05/29 07:44:47;;;;;;;1.67;1.50;;;20.90;71.70;;;;;;5031013;28;20033;-78
2021/05/29 07:47:13;;;;;;;1.20;1.10;;;21.10;72.60;;;;;;5033653;28;20022;-78
2021/05/29 07:49:39;;;;;;;1.15;1.05;;;21.60;71.20;;;;;;5035203;28;20032;-79
2021/05/29 07:52:05;;;;;;;2.17;1.30;;;22.10;68.80;;;;;;5034035;28;20047;-78
2021/05/29 07:54:31;;;;;;;1.42;0.70;;;22.50;68.90;;;;;;5016839;28;20096;-77
2021/05/29 07:56:58;;;;;;;1.15;1.02;;;22.80;67.00;;;;;;5019907;28;20041;-78
2021/05/29 07:59:24;;;;;;;1.38;1.27;;;22.90;59.30;;;;;;5017093;28;20436;-79
2021/05/29 08:01:50;;;;;;;1.30;1.13;;;22.30;58.30;;;;;;5034956;28;20026;-79
2021/05/29 08:04:17;;;;;;;2.13;1.23;;;21.30;61.10;;;;;;5035962;28;20036;-78
2021/05/29 08:06:43;;;;;;;1.05;0.90;;;21.10;67.60;;;;;;5033529;28;20033;-79
2021/05/29 08:09:10;;;;;;;0.85;0.85;;;21.10;67.10;;;;;;5036081;28;20049;-78
2021/05/29 08:11:40;;;;;;;1.90;0.88;;;21.20;66.30;;;;;;5034035;28;20033;-79
2021/05/29 08:14:08;;;;;;;2.85;1.10;;;21.20;67.00;;;;;;5035017;28;20457;-79
2021/05/29 08:16:34;;;;;;;3.50;1.00;;;21.10;63.70;;;;;;5032154;28;20030;-78
2021/05/29 08:19:00;;;;;;;1.13;1.00;;;20.70;65.20;;;;;;5030016;28;20026;-79
2021/05/29 08:21:25;;;;;;;3.40;1.13;;;20.20;66.30;;;;;;5014739;28;20038;-79
2021/05/29 08:23:53;;;;;;;1.20;1.10;;;19.60;67.80;;;;;;5035335;28;20041;-78
2021/05/29 08:26:18;;;;;;;1.42;1.13;;;18.90;68.40;;;;;;5034011;28;20041;-79
2021/05/29 08:28:45;;;;;;;1.38;1.08;;;18.40;71.40;;;;;;5033717;28;20037;-78
2021/05/29 08:31:12;;;;;;;0.80;0.80;;;18.10;74.10;;;;;;5033633;28;20037;-78
2021/05/29 08:33:39;;;;;;;1.05;0.90;;;18.00;73.30;;;;;;5034386;28;20037;-79
2021/05/29 08:36:06;;;;;;;1.00;0.90;;;17.90;73.50;;;;;;5034189;28;20029;-78
2021/05/29 08:38:32;;;;;;;2.03;0.93;;;17.60;73.40;;;;;;5036440;28;20112;-78
2021/05/29 08:40:58;;;;;;;1.95;0.70;;;17.60;78.40;;;;;;5034932;28;20061;-79
2021/05/29 08:43:24;;;;;;;1.63;0.90;;;17.60;78.40;;;;;;5032544;28;20405;-78
2021/05/29 08:45:50;;;;;;;1.08;0.90;;;17.60;78.50;;;;;;5034592;28;20039;-79
2021/05/29 08:48:16;;;;;;;1.05;0.90;;;17.80;76.30;;;;;;5017117;28;20043;-78
2021/05/29 08:53:27;;;;;;;4.18;1.27;;;18.00;77.00;;;;;;5036388;28;20067;-78
2021/05/29 08:55:52;;;;;;;1.08;0.73;;;18.30;77.40;;;;;;5030943;28;20033;-77
2021/05/29 08:58:18;;;;;;;1.42;0.93;;;18.70;72.10;;;;;;5018648;28;20033;-78
2021/05/29 09:00:44;;;;;;;0.90;0.85;;;19.00;72.50;;;;;;5035803;28;20809;-79
2021/05/29 09:03:11;;;;;;;1.45;1.02;;;19.10;72.00;;;;;;5016478;28;20148;-79
2021/05/29 09:05:40;;;;;;;1.27;1.00;;;19.00;70.10;;;;;;5030079;28;20060;-79
2021/05/29 09:08:08;;;;;;;1.67;1.00;;;18.50;72.20;;;;;;5035863;28;20056;-78
2021/05/29 09:10:43;;;;;;;1.05;0.77;;;17.70;77.70;;;;;;5035149;28;20041;-78
2021/05/29 09:13:14;;;;;;;0.70;0.70;;;17.00;76.90;;;;;;5027662;28;20034;-76
2021/05/29 09:15:40;;;;;;;1.00;0.90;;;16.30;82.70;;;;;;5028798;28;20049;-78
2021/05/29 09:18:06;;;;;;;1.63;1.13;;;15.80;85.60;;;;;;5031446;28;20030;-77
2021/05/29 09:20:32;;;;;;;1.13;1.02;;;15.60;89.10;;;;;;5031545;28;20047;-77
2021/05/29 09:22:59;;;;;;;1.95;1.30;;;15.40;90.40;;;;;;5031649;28;20695;-78
2021/05/29 09:25:26;;;;;;;1.92;1.30;;;15.50;91.10;;;;;;5031633;28;20037;-78
2021/05/29 09:28:02;;;;;;;1.40;1.08;;;15.60;88.60;;;;;;5028614;28;20025;-77
2021/05/29 09:30:38;;;;;;;1.20;0.90;;;15.50;88.80;;;;;;5033555;28;20049;-78
2021/05/29 09:33:13;;;;;;;1.00;0.90;;;15.40;91.10;;;;;;5031280;28;20029;-77
2021/05/29 09:35:39;;;;;;;1.20;1.10;;;15.20;85.80;;;;;;5026107;28;20030;-78
2021/05/29 09:38:05;;;;;;;2.63;1.08;;;15.10;89.30;;;;;;5031922;28;20036;-78
2021/05/29 09:40:31;;;;;;;1.63;1.10;;;15.00;91.90;;;;;;5031301;28;20544;-77
2021/05/29 09:43:04;;;;;;;1.25;1.15;;;15.10;91.20;;;;;;5026587;28;20056;-78
2021/05/29 09:45:31;;;;;;;2.75;1.80;;;15.10;91.70;;;;;;5030611;28;20040;-79
2021/05/29 09:48:17;;;;;;;1.25;1.15;;;15.20;91.10;;;;;;5028769;28;20038;-78
2021/05/29 09:51:01;;;;;;;1.70;0.90;;;15.20;91.90;;;;;;5029961;28;20085;-77
2021/05/29 09:53:33;;;;;;;3.03;0.85;;;15.40;89.80;;;;;;5029445;28;21824;-79
2021/05/29 09:55:59;;;;;;;2.03;0.85;;;15.60;90.50;;;;;;5029955;28;20033;-77
2021/05/29 09:59:10;;;;;;;1.02;0.88;;;15.80;84.10;;;;;;5029552;28;20048;-77
2021/05/29 10:01:47;;;;;;;2.90;1.27;;;16.10;90.00;;;;;;5024161;28;20048;-79
2021/05/29 10:04:16;;;;;;;1.10;0.98;;;16.40;88.30;;;;;;5009640;28;20080;-77
2021/05/29 10:06:57;;;;;;;0.60;0.60;;;16.50;87.50;;;;;;5030736;28;21280;-79
2021/05/29 10:09:23;;;;;;;2.20;0.80;;;16.60;87.20;;;;;;5030635;28;20037;-78
2021/05/29 10:11:48;;;;;;;1.35;0.60;;;16.80;85.10;;;;;;5028078;28;20472;-78
2021/05/29 10:14:14;;;;;;;0.70;0.70;;;16.90;82.70;;;;;;5024198;28;20029;-78
2021/05/29 10:16:41;;;;;;;0.57;0.55;;;16.80;82.30;;;;;;5025561;28;20026;-79
2021/05/29 10:19:09;;;;;;;0.70;0.70;;;16.70;79.80;;;;;;5029837;28;20033;-78
2021/05/29 10:21:36;;;;;;;0.95;0.52;;;16.60;81.40;;;;;;5028384;28;20260;-79
2021/05/29 10:24:03;;;;;;;0.90;0.70;;;16.40;82.80;;;;;;5022837;28;20034;-78
2021/05/29 10:26:30;;;;;;;16.48;2.53;;;16.20;85.90;;;;;;5028862;28;20037;-79
2021/05/29 10:28:57;;;;;;;4.00;0.90;;;15.90;86.80;;;;;;5027371;28;20026;-77
2021/05/29 10:31:28;;;;;;;1.13;0.60;;;15.60;90.20;;;;;;5028241;28;20039;-79
2021/05/29 10:33:54;;;;;;;1.05;0.80;;;15.30;92.30;;;;;;5029172;28;20022;-78
2021/05/29 10:36:38;;;;;;;0.68;0.60;;;15.10;94.80;;;;;;5025923;28;20680;-78
2021/05/29 10:39:09;;;;;;;1.30;0.80;;;14.90;98.30;;;;;;5031042;28;20588;-79
2021/05/29 10:41:51;;;;;;;0.85;0.80;;;14.70;99.90;;;;;;5025162;28;20044;-78
2021/05/29 10:44:26;;;;;;;0.82;0.80;;;14.60;99.90;;;;;;5030728;28;20021;-78
2021/05/29 10:47:09;;;;;;;3.15;1.45;;;14.70;99.90;;;;;;5027178;28;20060;-78
2021/05/29 10:49:47;;;;;;;0.77;0.70;;;14.90;99.90;;;;;;5028331;28;20029;-78
2021/05/29 10:52:34;;;;;;;1.38;0.60;;;15.20;99.90;;;;;;5031987;28;20040;-79
2021/05/29 10:55:11;;;;;;;0.68;0.60;;;15.50;99.90;;;;;;5030947;28;20030;-77
2021/05/29 10:57:58;;;;;;;0.50;0.50;;;15.70;99.90;;;;;;5030389;28;20041;-78
2021/05/29 11:00:36;;;;;;;1.35;0.60;;;15.70;98.70;;;;;;5030728;28;20033;-79
2021/05/29 11:03:17;;;;;;;0.98;0.57;;;15.70;99.90;;;;;;5031000;28;20029;-78
2021/05/29 11:05:44;;;;;;;1.75;0.85;;;15.70;98.80;;;;;;5030521;28;20029;-77
2021/05/29 11:08:47;;;;;;;0.60;0.40;;;15.70;99.90;;;;;;5032264;28;20075;-78
2021/05/29 11:14:27;;;;;;;1.02;0.80;;;15.80;99.90;;;;;;5030054;28;20028;-79
2021/05/29 11:16:56;;;;;;;0.85;0.70;;;16.00;99.90;;;;;;5029652;28;20025;-77
2021/05/29 11:19:27;;;;;;;0.60;0.60;;;16.30;99.90;;;;;;5024294;28;20085;-77
2021/05/29 11:22:03;;;;;;;0.70;0.70;;;16.60;98.80;;;;;;5028939;28;20552;-79
2021/05/29 11:24:30;;;;;;;0.80;0.65;;;16.80;99.00;;;;;;5012092;28;20025;-79
2021/05/29 11:26:56;;;;;;;0.70;0.70;;;16.80;93.70;;;;;;5025085;28;20132;-79
2021/05/29 11:29:22;;;;;;;1.50;0.50;;;16.90;97.30;;;;;;5030575;28;20053;-79
2021/05/29 11:31:49;;;;;;;1.10;0.68;;;17.00;99.20;;;;;;5014062;28;20021;-77
2021/05/29 11:34:15;;;;;;;1.17;0.80;;;17.10;95.40;;;;;;5029991;28;20113;-78
2021/05/29 11:36:42;;;;;;;0.63;0.60;;;17.10;92.30;;;;;;5028401;28;20585;-78
2021/05/29 11:39:19;;;;;;;0.85;0.85;;;17.10;90.90;;;;;;5030279;28;20518;-77
2021/05/29 11:41:45;;;;;;;1.05;0.60;;;17.00;91.80;;;;;;5026420;28;20472;-78
2021/05/29 11:44:25;;;;;;;0.90;0.60;;;16.90;85.80;;;;;;5029140;28;20025;-76
2021/05/29 11:46:50;;;;;;;0.68;0.52;;;16.80;85.50;;;;;;5004590;28;20041;-76
2021/05/29 11:49:16;;;;;;;2.53;0.80;;;16.90;88.90;;;;;;5025188;28;20025;-78
2021/05/29 11:51:44;;;;;;;1.52;0.70;;;17.00;92.20;;;;;;5023040;28;20038;-77
2021/05/29 11:54:18;;;;;;;0.60;0.60;;;17.30;92.80;;;;;;5026221;28;20029;-78
2021/05/29 11:56:52;;;;;;;0.60;0.60;;;17.30;90.80;;;;;;5025274;28;20087;-75
2021/05/29 11:59:22;;;;;;;1.20;0.70;;;17.20;86.10;;;;;;5026761;28;20037;-76
2021/05/29 12:01:52;;;;;;;1.67;0.80;;;17.20;87.80;;;;;;5027437;28;20029;-78
2021/05/29 12:04:22;;;;;;;1.33;0.65;;;17.30;85.20;;;;;;5023644;28;20030;-78
2021/05/29 12:06:55;;;;;;;0.57;0.57;;;17.40;85.70;;;;;;5024528;28;20022;-78
2021/05/29 12:09:39;;;;;;;0.73;0.73;;;17.40;81.80;;;;;;5025952;28;20156;-78
2021/05/29 12:12:09;;;;;;;0.50;0.50;;;17.50;84.40;;;;;;5007497;28;20075;-79
2021/05/29 12:14:40;;;;;;;0.57;0.40;;;17.70;85.40;;;;;;5020447;28;20048;-79
2021/05/29 12:17:07;;;;;;;0.70;0.70;;;18.00;82.50;;;;;;5022643;28;20069;-78
2021/05/29 12:19:33;;;;;;;1.30;0.70;;;18.10;79.40;;;;;;5022598;28;20034;-78
2021/05/29 12:22:23;;;;;;;2.05;0.60;;;17.90;78.10;;;;;;5021872;28;20115;-78
2021/05/29 12:24:52;;;;;;;1.42;0.70;;;17.90;82.90;;;;;;5019628;28;20033;-78
2021/05/29 12:27:23;;;;;;;0.60;0.60;;;18.30;78.40;;;;;;5021312;28;20033;-79
2021/05/29 12:29:55;;;;;;;0.50;0.50;;;18.60;74.50;;;;;;5026442;28;20112;-79
2021/05/29 12:32:34;;;;;;;1.55;0.70;;;19.00;74.40;;;;;;5025550;28;20025;-78
2021/05/29 12:35:00;;;;;;;2.15;0.60;;;19.50;72.30;;;;;;5021809;28;20048;-78
2021/05/29 12:37:30;;;;;;;0.57;0.47;;;19.90;69.00;;;;;;5021589;28;20033;-77
2021/05/29 12:40:08;;;;;;;0.50;0.30;;;20.20;66.00;;;;;;5019574;28;20174;-78
2021/05/29 12:42:52;;;;;;;0.57;0.50;;;20.50;64.00;;;;;;5002892;28;20030;-78
2021/05/29 12:45:23;;;;;;;0.68;0.50;;;20.50;59.10;;;;;;5021687;28;20028;-79
2021/05/29 12:48:05;;;;;;;0.73;0.40;;;20.70;61.80;;;;;;5023020;28;20052;-78
2021/05/29 12:50:38;;;;;;;0.70;0.50;;;20.60;54.40;;;;;;5024667;28;20049;-78
2021/05/29 12:53:15;;;;;;;0.90;0.65;;;20.20;58.80;;;;;;5027996;28;20440;-77
2021/05/29 12:55:43;;;;;;;0.70;0.52;;;19.80;55.40;;;;;;5027610;28;20568;-78
2021/05/29 12:58:17;;;;;;;0.63;0.40;;;19.40;60.00;;;;;;5024032;28;20025;-78
2021/05/29 13:11:42;;;;;;;0.73;0.63;;;19.60;59.70;;;;;;5026914;28;20033;-78
2021/05/29 13:14:13;;;;;;;1.33;0.70;;;19.50;62.70;;;;;;5028143;28;20072;-79
2021/05/29 13:16:58;;;;;;;0.88;0.50;;;19.50;62.20;;;;;;5011964;28;20104;-78
2021/05/29 13:19:26;;;;;;;0.52;0.52;;;19.30;60.40;;;;;;5007911;28;20029;-78
2021/05/29 13:22:00;;;;;;;0.47;0.40;;;19.00;60.50;;;;;;5027632;28;20033;-79
2021/05/29 13:24:43;;;;;;;1.23;0.43;;;18.80;61.10;;;;;;5026013;28;20038;-79